Time;durP1;ratioP1;P1;durP2;ratioP2;P2;SDS_P1;SDS_P2;PMS_P1;PMS_P2;Temp;Humidity;BMP_temperature;BMP_pressure;BME280_temperature;BME280_humidity;BME280_pressure;Samples;Min_cycle;Max_cycle;Signal;HPM_P1;HPM_P2
2024/03/06 00:02:13;;;;;;;51.50;28.93;;;;;;;;;;4997006;28;20470;-80
2024/03/06 00:04:39;;;;;;;51.40;28.17;;;;;;;;;;4996105;28;21002;-80
2024/03/06 00:07:05;;;;;;;58.97;30.20;;;;;;;;;;4996778;28;20452;-80
2024/03/06 00:09:31;;;;;;;54.67;30.08;;;;;;;;;;4997565;28;20416;-80
2024/03/06 00:11:58;;;;;;;52.47;28.70;;;;;;;;;;5011686;28;20527;-80
2024/03/06 00:14:24;;;;;;;56.50;27.85;;;;;;;;;;4997807;28;20415;-80
2024/03/06 00:16:50;;;;;;;55.97;28.65;;;;;;;;;;4997362;28;20280;-80
2024/03/06 00:19:23;;;;;;;53.10;28.23;;;;;;;;;;4996176;28;20235;-80
2024/03/06 00:21:49;;;;;;;58.78;31.10;;;;;;;;;;4979208;28;20209;-80
2024/03/06 00:24:15;;;;;;;49.95;27.80;;;;;;;;;;4997627;28;20187;-80
2024/03/06 00:26:42;;;;;;;47.05;28.48;;;;;;;;;;4997161;28;20173;-80
2024/03/06 00:29:08;;;;;;;53.65;26.95;;;;;;;;;;4997311;28;20179;-80
2024/03/06 00:31:34;;;;;;;59.30;29.00;;;;;;;;;;4996646;28;20238;-79
2024/03/06 00:34:00;;;;;;;57.03;29.30;;;;;;;;;;4996460;28;20415;-80
2024/03/06 00:36:26;;;;;;;52.45;29.00;;;;;;;;;;4997018;28;20403;-80
2024/03/06 00:38:52;;;;;;;56.60;30.40;;;;;;;;;;4996634;28;20181;-79
2024/03/06 00:41:19;;;;;;;55.03;28.05;;;;;;;;;;4995226;28;20185;-79
2024/03/06 00:43:45;;;;;;;56.08;30.70;;;;;;;;;;4996194;28;20184;-80
2024/03/06 00:46:11;;;;;;;56.72;28.88;;;;;;;;;;4979305;28;20184;-80
2024/03/06 00:48:38;;;;;;;55.70;31.50;;;;;;;;;;4996789;28;20184;-80
2024/03/06 00:51:06;;;;;;;62.88;31.55;;;;;;;;;;4996586;28;20389;-81
2024/03/06 00:53:32;;;;;;;53.92;28.27;;;;;;;;;;4995556;28;20179;-80
2024/03/06 00:55:58;;;;;;;61.60;33.47;;;;;;;;;;4995926;28;20270;-80
2024/03/06 00:58:24;;;;;;;54.67;30.40;;;;;;;;;;4996358;28;20610;-81
2024/03/06 01:00:50;;;;;;;61.00;32.33;;;;;;;;;;4996076;28;20415;-80
2024/03/06 01:03:16;;;;;;;66.83;32.90;;;;;;;;;;4996763;28;20463;-80
2024/03/06 01:05:42;;;;;;;60.03;31.45;;;;;;;;;;4996849;28;20891;-80
2024/03/06 01:08:08;;;;;;;60.65;31.38;;;;;;;;;;4994985;28;20231;-81
2024/03/06 01:10:34;;;;;;;63.80;32.73;;;;;;;;;;4996810;28;20248;-81
2024/03/06 01:13:00;;;;;;;64.40;31.67;;;;;;;;;;4994940;28;20430;-80
2024/03/06 01:15:26;;;;;;;53.40;29.53;;;;;;;;;;4995914;28;20184;-81
2024/03/06 01:17:52;;;;;;;57.70;28.77;;;;;;;;;;4995314;28;20411;-80
2024/03/06 01:20:19;;;;;;;64.05;32.05;;;;;;;;;;4996485;28;20227;-81
2024/03/06 01:22:46;;;;;;;60.08;31.77;;;;;;;;;;4997059;28;20654;-80
2024/03/06 01:25:12;;;;;;;54.88;30.30;;;;;;;;;;4982757;28;20176;-81
2024/03/06 01:27:38;;;;;;;53.10;28.87;;;;;;;;;;5000119;28;20198;-81
2024/03/06 01:30:04;;;;;;;58.40;30.25;;;;;;;;;;5000031;28;20453;-81
2024/03/06 01:32:31;;;;;;;60.28;31.73;;;;;;;;;;4999550;28;20187;-80
2024/03/06 01:34:57;;;;;;;67.47;34.20;;;;;;;;;;4999993;28;20175;-81
2024/03/06 01:37:23;;;;;;;98.95;34.03;;;;;;;;;;5000235;28;20179;-81
2024/03/06 01:39:49;;;;;;;131.30;36.30;;;;;;;;;;4998807;28;20187;-81
2024/03/06 01:42:17;;;;;;;162.90;42.30;;;;;;;;;;4998917;28;20462;-80
2024/03/06 01:44:43;;;;;;;234.13;43.80;;;;;;;;;;4998647;28;20176;-80
2024/03/06 01:47:09;;;;;;;187.53;40.30;;;;;;;;;;4998893;28;20183;-80
2024/03/06 01:49:36;;;;;;;222.60;45.00;;;;;;;;;;4998989;28;20429;-80
2024/03/06 01:52:02;;;;;;;222.05;46.22;;;;;;;;;;4982403;28;20426;-80
2024/03/06 01:54:28;;;;;;;271.67;47.15;;;;;;;;;;4999970;28;20179;-80
2024/03/06 01:56:55;;;;;;;153.45;39.65;;;;;;;;;;4999625;28;20183;-80
2024/03/06 01:59:22;;;;;;;119.40;35.03;;;;;;;;;;4998501;28;20643;-80
2024/03/06 02:01:48;;;;;;;184.13;41.50;;;;;;;;;;4998053;28;20215;-80
2024/03/06 02:04:14;;;;;;;171.48;41.58;;;;;;;;;;4998523;28;20243;-80
2024/03/06 02:06:40;;;;;;;160.60;42.22;;;;;;;;;;4999580;28;20263;-80
2024/03/06 02:09:06;;;;;;;78.07;30.58;;;;;;;;;;4998145;28;20662;-80
2024/03/06 02:11:33;;;;;;;47.20;28.02;;;;;;;;;;4999964;28;20254;-80
2024/03/06 02:13:59;;;;;;;47.25;27.55;;;;;;;;;;4982127;28;20184;-80
2024/03/06 02:16:25;;;;;;;47.50;26.95;;;;;;;;;;4998616;28;20175;-81
2024/03/06 02:18:52;;;;;;;59.40;28.38;;;;;;;;;;4998161;28;20172;-80
2024/03/06 02:21:18;;;;;;;54.67;29.50;;;;;;;;;;4982089;28;20179;-80
2024/03/06 02:23:44;;;;;;;39.70;25.17;;;;;;;;;;4989405;28;20240;-81
2024/03/06 02:26:11;;;;;;;49.43;26.47;;;;;;;;;;4999205;28;20182;-81
2024/03/06 02:28:37;;;;;;;45.95;28.25;;;;;;;;;;4998062;28;20510;-81
2024/03/06 02:31:04;;;;;;;46.40;26.27;;;;;;;;;;4997737;28;20229;-80
2024/03/06 02:33:30;;;;;;;37.90;23.50;;;;;;;;;;4998278;28;20926;-80
2024/03/06 02:35:56;;;;;;;42.00;25.50;;;;;;;;;;4999072;28;20183;-80
2024/03/06 02:38:22;;;;;;;39.00;23.60;;;;;;;;;;4999156;28;21013;-81
2024/03/06 02:40:48;;;;;;;33.70;22.02;;;;;;;;;;4999315;28;20802;-80
2024/03/06 02:43:15;;;;;;;35.97;22.00;;;;;;;;;;4999037;28;20210;-81
2024/03/06 02:45:41;;;;;;;36.13;22.25;;;;;;;;;;4998832;28;20216;-80
2024/03/06 02:48:07;;;;;;;36.08;22.40;;;;;;;;;;4998995;28;20649;-80
2024/03/06 02:50:33;;;;;;;34.20;21.13;;;;;;;;;;4981461;28;20191;-80
2024/03/06 02:52:59;;;;;;;43.53;23.00;;;;;;;;;;4981336;28;20187;-80
2024/03/06 02:55:25;;;;;;;33.55;21.42;;;;;;;;;;4999008;28;20439;-80
2024/03/06 02:57:51;;;;;;;36.85;22.30;;;;;;;;;;4981806;28;20195;-80
2024/03/06 03:00:17;;;;;;;34.80;22.37;;;;;;;;;;4997390;28;20183;-80
2024/03/06 03:02:43;;;;;;;32.47;20.33;;;;;;;;;;4981245;28;20462;-80
2024/03/06 03:05:09;;;;;;;30.43;20.00;;;;;;;;;;4998232;28;20344;-80
2024/03/06 03:07:35;;;;;;;29.83;18.67;;;;;;;;;;4981351;28;20477;-80
2024/03/06 03:10:01;;;;;;;29.10;17.60;;;;;;;;;;4998198;28;20175;-80
2024/03/06 03:12:27;;;;;;;34.00;17.98;;;;;;;;;;4981494;28;20438;-80
2024/03/06 03:14:53;;;;;;;28.57;18.07;;;;;;;;;;4998941;28;20694;-80
2024/03/06 03:17:19;;;;;;;29.37;17.43;;;;;;;;;;4998777;28;20865;-80
2024/03/06 03:19:45;;;;;;;29.48;17.63;;;;;;;;;;4981157;28;20442;-80
2024/03/06 03:22:13;;;;;;;30.17;17.33;;;;;;;;;;4980938;28;20206;-80
2024/03/06 03:24:39;;;;;;;27.40;17.33;;;;;;;;;;4998739;28;20179;-80
2024/03/06 03:27:06;;;;;;;28.13;16.10;;;;;;;;;;4980869;28;20182;-80
2024/03/06 03:29:32;;;;;;;26.23;15.77;;;;;;;;;;4998403;28;20207;-80
2024/03/06 03:31:58;;;;;;;24.38;16.70;;;;;;;;;;4998360;28;20171;-80
2024/03/06 03:34:24;;;;;;;29.37;17.97;;;;;;;;;;4981075;28;20183;-80
2024/03/06 03:36:50;;;;;;;33.55;18.30;;;;;;;;;;4980977;28;20416;-80
2024/03/06 03:39:20;;;;;;;34.63;18.77;;;;;;;;;;4998332;28;20184;-80
2024/03/06 03:41:46;;;;;;;32.35;19.42;;;;;;;;;;4998628;28;20230;-80
2024/03/06 03:44:16;;;;;;;31.88;19.08;;;;;;;;;;4969271;28;20531;-80
2024/03/06 03:46:42;;;;;;;37.40;21.05;;;;;;;;;;4997263;28;20175;-79
2024/03/06 03:49:11;;;;;;;36.05;20.98;;;;;;;;;;4980688;28;20278;-80
2024/03/06 03:51:38;;;;;;;39.53;23.15;;;;;;;;;;4981157;28;20651;-80
2024/03/06 03:54:04;;;;;;;46.45;23.90;;;;;;;;;;4996253;28;20194;-79
2024/03/06 03:56:30;;;;;;;46.30;23.75;;;;;;;;;;4998387;28;20178;-80
2024/03/06 03:58:57;;;;;;;40.25;22.58;;;;;;;;;;4997730;28;20180;-80
2024/03/06 04:01:23;;;;;;;45.30;20.75;;;;;;;;;;4996506;28;20182;-79
2024/03/06 04:03:50;;;;;;;37.95;21.20;;;;;;;;;;4992930;28;20189;-80
2024/03/06 04:06:16;;;;;;;36.85;21.35;;;;;;;;;;4979733;28;20282;-80
2024/03/06 04:08:42;;;;;;;31.33;19.45;;;;;;;;;;4997577;28;20224;-80
2024/03/06 04:11:08;;;;;;;33.22;19.27;;;;;;;;;;4995953;28;20713;-80
2024/03/06 04:13:38;;;;;;;29.00;16.93;;;;;;;;;;4998294;28;20176;-79
2024/03/06 04:16:07;;;;;;;35.10;20.00;;;;;;;;;;4980106;28;20422;-79
2024/03/06 04:18:34;;;;;;;29.63;17.52;;;;;;;;;;4997080;28;20260;-80
2024/03/06 04:21:04;;;;;;;31.30;18.60;;;;;;;;;;4980182;28;20215;-80
2024/03/06 04:23:30;;;;;;;28.02;16.75;;;;;;;;;;4997753;28;20221;-80
2024/03/06 04:25:56;;;;;;;22.55;14.90;;;;;;;;;;4996387;28;20199;-80
2024/03/06 04:28:22;;;;;;;24.85;14.38;;;;;;;;;;4996436;28;20180;-80
2024/03/06 04:30:48;;;;;;;27.03;16.20;;;;;;;;;;4980501;28;20636;-80
2024/03/06 04:33:14;;;;;;;28.20;14.57;;;;;;;;;;4979968;28;20434;-79
2024/03/06 04:35:41;;;;;;;21.08;13.50;;;;;;;;;;4997470;28;20182;-80
2024/03/06 04:38:07;;;;;;;22.00;14.00;;;;;;;;;;4995443;28;20213;-79
2024/03/06 04:40:34;;;;;;;24.05;13.55;;;;;;;;;;4997207;28;20179;-79
2024/03/06 04:43:00;;;;;;;19.67;11.82;;;;;;;;;;4996021;28;20203;-80
2024/03/06 04:45:26;;;;;;;17.58;10.32;;;;;;;;;;4979961;28;20182;-80
2024/03/06 04:47:52;;;;;;;14.05;9.43;;;;;;;;;;4979689;28;20188;-80
2024/03/06 04:50:18;;;;;;;14.85;9.98;;;;;;;;;;4996618;28;20176;-80
2024/03/06 04:52:47;;;;;;;13.00;9.43;;;;;;;;;;4979733;28;20667;-80
2024/03/06 04:55:14;;;;;;;11.65;7.72;;;;;;;;;;4979032;28;20214;-80
2024/03/06 04:57:43;;;;;;;10.50;6.93;;;;;;;;;;4981957;28;20643;-80
2024/03/06 05:00:10;;;;;;;10.82;7.43;;;;;;;;;;5001214;28;20199;-80
2024/03/06 05:02:36;;;;;;;12.25;7.47;;;;;;;;;;4983668;28;20294;-80
2024/03/06 05:05:02;;;;;;;10.07;7.00;;;;;;;;;;4984034;28;20185;-80
2024/03/06 05:07:29;;;;;;;13.63;6.70;;;;;;;;;;4999635;28;20227;-80
2024/03/06 05:09:56;;;;;;;8.82;5.55;;;;;;;;;;4983831;28;20647;-80
2024/03/06 05:12:21;;;;;;;10.93;7.10;;;;;;;;;;5000671;28;20306;-80
2024/03/06 05:14:47;;;;;;;11.10;7.23;;;;;;;;;;4999702;28;20632;-80
2024/03/06 05:17:13;;;;;;;7.72;6.03;;;;;;;;;;4999113;28;20422;-80
2024/03/06 05:19:39;;;;;;;11.30;7.00;;;;;;;;;;5000389;28;20646;-80
2024/03/06 05:22:05;;;;;;;8.63;5.60;;;;;;;;;;5000652;28;20489;-80
2024/03/06 05:24:31;;;;;;;12.10;6.50;;;;;;;;;;4983304;28;20513;-80
2024/03/06 05:26:57;;;;;;;8.43;6.15;;;;;;;;;;4998726;28;20412;-80
2024/03/06 05:29:23;;;;;;;9.00;6.40;;;;;;;;;;4998907;28;20612;-80
2024/03/06 05:31:49;;;;;;;7.70;6.90;;;;;;;;;;5000744;28;20478;-80
2024/03/06 05:34:15;;;;;;;8.60;5.80;;;;;;;;;;4982861;28;20422;-80
2024/03/06 05:36:41;;;;;;;10.57;5.87;;;;;;;;;;4999939;28;20494;-80
2024/03/06 05:39:12;;;;;;;9.50;6.20;;;;;;;;;;4983037;28;20423;-81
2024/03/06 05:41:38;;;;;;;7.93;6.38;;;;;;;;;;5000171;28;20391;-80
2024/03/06 05:44:04;;;;;;;8.63;6.10;;;;;;;;;;5000126;28;20268;-81
2024/03/06 05:46:30;;;;;;;8.37;6.60;;;;;;;;;;4983280;28;20419;-80
2024/03/06 05:48:56;;;;;;;7.13;5.55;;;;;;;;;;4999953;28;20433;-80
2024/03/06 05:51:22;;;;;;;11.27;7.57;;;;;;;;;;4982752;28;20176;-80
2024/03/06 05:53:48;;;;;;;16.25;9.77;;;;;;;;;;4982385;28;20449;-80
2024/03/06 05:56:14;;;;;;;15.90;8.57;;;;;;;;;;4998711;28;20183;-80
2024/03/06 05:58:40;;;;;;;10.18;7.03;;;;;;;;;;4982930;28;20182;-80
2024/03/06 06:01:06;;;;;;;10.50;6.82;;;;;;;;;;5000648;28;20635;-80
2024/03/06 06:03:32;;;;;;;22.70;14.23;;;;;;;;;;4976409;28;20199;-80
2024/03/06 06:05:59;;;;;;;29.67;15.35;;;;;;;;;;4998715;28;20194;-80
2024/03/06 06:08:25;;;;;;;22.85;13.38;;;;;;;;;;4999006;28;20593;-80
2024/03/06 06:10:54;;;;;;;13.60;8.35;;;;;;;;;;4999747;28;20662;-80
2024/03/06 06:13:21;;;;;;;10.18;8.45;;;;;;;;;;4981943;28;20261;-80
2024/03/06 06:15:47;;;;;;;10.63;7.30;;;;;;;;;;4982167;28;20278;-80
2024/03/06 06:18:13;;;;;;;9.52;6.78;;;;;;;;;;4981801;28;20191;-80
2024/03/06 06:20:41;;;;;;;10.35;6.97;;;;;;;;;;4981697;28;20176;-80
2024/03/06 06:23:07;;;;;;;10.82;6.50;;;;;;;;;;4998654;28;20743;-80
2024/03/06 06:25:33;;;;;;;8.00;6.07;;;;;;;;;;4978749;28;20188;-80
2024/03/06 06:27:59;;;;;;;8.95;6.85;;;;;;;;;;4962526;28;20267;-80
2024/03/06 06:30:25;;;;;;;9.07;6.55;;;;;;;;;;4978133;28;20174;-80
2024/03/06 06:32:51;;;;;;;7.70;5.70;;;;;;;;;;4962653;28;20187;-80
2024/03/06 06:35:17;;;;;;;11.60;7.03;;;;;;;;;;4987502;28;20422;-80
2024/03/06 06:37:43;;;;;;;9.93;7.28;;;;;;;;;;4998310;28;20415;-80
2024/03/06 06:40:09;;;;;;;9.67;6.07;;;;;;;;;;4997998;28;20198;-80
2024/03/06 06:42:36;;;;;;;9.10;7.07;;;;;;;;;;4998146;28;20537;-80
2024/03/06 06:45:02;;;;;;;12.05;8.05;;;;;;;;;;5001096;28;20621;-80
2024/03/06 06:47:28;;;;;;;13.05;10.52;;;;;;;;;;5000843;28;20265;-80
2024/03/06 06:49:54;;;;;;;13.50;10.70;;;;;;;;;;5001123;28;20183;-80
2024/03/06 06:52:20;;;;;;;10.38;7.55;;;;;;;;;;5001001;28;20183;-80
2024/03/06 06:54:46;;;;;;;17.07;8.50;;;;;;;;;;5001219;28;20205;-80
2024/03/06 06:57:12;;;;;;;9.75;6.75;;;;;;;;;;4997433;28;20418;-80
2024/03/06 06:59:38;;;;;;;9.97;7.60;;;;;;;;;;4981702;28;20179;-80
2024/03/06 07:02:05;;;;;;;11.10;6.95;;;;;;;;;;4980879;28;20478;-80
2024/03/06 07:04:31;;;;;;;11.60;7.20;;;;;;;;;;4980910;28;20627;-81
2024/03/06 07:06:57;;;;;;;14.02;8.70;;;;;;;;;;4981248;28;20230;-80
2024/03/06 07:09:25;;;;;;;11.23;7.33;;;;;;;;;;4980813;28;20180;-81
2024/03/06 07:11:50;;;;;;;10.05;7.13;;;;;;;;;;4980894;28;20915;-81
2024/03/06 07:14:16;;;;;;;10.30;7.67;;;;;;;;;;4996823;28;20234;-81
2024/03/06 07:16:43;;;;;;;13.07;6.77;;;;;;;;;;4998595;28;20403;-81
2024/03/06 07:19:09;;;;;;;12.73;7.53;;;;;;;;;;4998361;28;20487;-82
2024/03/06 07:21:35;;;;;;;10.50;7.07;;;;;;;;;;4996946;28;20211;-82
2024/03/06 07:24:01;;;;;;;10.68;7.80;;;;;;;;;;4997088;28;20975;-81
2024/03/06 07:26:29;;;;;;;11.43;7.03;;;;;;;;;;4997747;28;20168;-81
2024/03/06 07:28:55;;;;;;;9.60;7.10;;;;;;;;;;4996616;28;20174;-81
2024/03/06 07:31:21;;;;;;;14.20;7.85;;;;;;;;;;4997862;28;20183;-81
2024/03/06 07:33:47;;;;;;;9.07;7.35;;;;;;;;;;4996760;28;20180;-82
2024/03/06 07:36:14;;;;;;;11.67;7.40;;;;;;;;;;4996543;28;20189;-82
2024/03/06 07:38:41;;;;;;;13.38;8.02;;;;;;;;;;4999574;28;20464;-82
2024/03/06 07:41:07;;;;;;;10.65;8.10;;;;;;;;;;5017214;28;20179;-82
2024/03/06 07:43:33;;;;;;;9.57;7.53;;;;;;;;;;4993248;28;20207;-81
2024/03/06 07:45:59;;;;;;;10.50;7.80;;;;;;;;;;4980519;28;20430;-82
2024/03/06 07:48:25;;;;;;;11.90;6.97;;;;;;;;;;4980051;28;20919;-82
2024/03/06 07:50:51;;;;;;;8.18;7.20;;;;;;;;;;4997505;28;20465;-82
2024/03/06 07:53:17;;;;;;;15.03;8.17;;;;;;;;;;4979699;28;20184;-81
2024/03/06 07:55:44;;;;;;;12.10;7.63;;;;;;;;;;4980051;28;20422;-82
2024/03/06 07:58:10;;;;;;;11.80;7.90;;;;;;;;;;4997395;28;20183;-82
2024/03/06 08:00:36;;;;;;;8.48;7.65;;;;;;;;;;4995887;28;20276;-82
2024/03/06 08:03:02;;;;;;;11.95;7.25;;;;;;;;;;4979395;28;20207;-82
2024/03/06 08:05:33;;;;;;;12.40;7.72;;;;;;;;;;4979396;28;20207;-82
2024/03/06 08:07:59;;;;;;;10.70;8.52;;;;;;;;;;4980317;28;20220;-82
2024/03/06 08:10:25;;;;;;;14.53;8.43;;;;;;;;;;4979843;28;20691;-82
2024/03/06 08:12:51;;;;;;;10.47;6.97;;;;;;;;;;4980554;28;20411;-82
2024/03/06 08:15:17;;;;;;;9.33;7.00;;;;;;;;;;4980278;28;20417;-82
2024/03/06 08:17:44;;;;;;;15.30;7.90;;;;;;;;;;4997629;28;20435;-82
2024/03/06 08:20:10;;;;;;;12.63;9.10;;;;;;;;;;4980142;28;20266;-86
2024/03/06 08:22:39;;;;;;;10.85;6.93;;;;;;;;;;5004889;28;20246;-87
2024/03/06 08:25:05;;;;;;;10.07;7.65;;;;;;;;;;4996199;28;20177;-86
2024/03/06 08:27:32;;;;;;;14.93;8.30;;;;;;;;;;5000206;28;20667;-87
2024/03/06 08:29:57;;;;;;;11.25;8.07;;;;;;;;;;5014080;28;20182;-87
2024/03/06 08:32:24;;;;;;;10.20;8.47;;;;;;;;;;5014817;28;20183;-87
2024/03/06 08:34:50;;;;;;;11.60;8.50;;;;;;;;;;5015180;28;20757;-87
2024/03/06 08:37:16;;;;;;;10.45;7.32;;;;;;;;;;5014524;28;20642;-87
2024/03/06 08:39:42;;;;;;;15.03;8.80;;;;;;;;;;5011028;28;20328;-87
2024/03/06 08:42:08;;;;;;;11.37;8.00;;;;;;;;;;4996375;28;20832;-81
2024/03/06 08:44:34;;;;;;;11.75;8.50;;;;;;;;;;4979613;28;20425;-81
2024/03/06 08:47:00;;;;;;;13.37;9.30;;;;;;;;;;4979481;28;20190;-81
2024/03/06 08:49:26;;;;;;;12.33;8.80;;;;;;;;;;4979343;28;20829;-80
2024/03/06 08:51:52;;;;;;;12.63;7.40;;;;;;;;;;4996701;28;20470;-81
2024/03/06 08:54:18;;;;;;;12.83;8.90;;;;;;;;;;4978365;28;20418;-89
2024/03/06 08:56:44;;;;;;;12.13;8.73;;;;;;;;;;4995167;28;20863;-88
2024/03/06 08:59:10;;;;;;;12.25;9.07;;;;;;;;;;4995126;28;20502;-89
2024/03/06 09:01:36;;;;;;;13.17;8.73;;;;;;;;;;4994642;28;20220;-89
2024/03/06 09:04:02;;;;;;;11.33;8.20;;;;;;;;;;4995361;28;20424;-89
2024/03/06 09:06:28;;;;;;;13.10;8.90;;;;;;;;;;4994939;28;20466;-88
2024/03/06 09:08:54;;;;;;;11.90;8.37;;;;;;;;;;4993570;28;20925;-88
2024/03/06 09:11:20;;;;;;;10.47;8.47;;;;;;;;;;4994721;28;20418;-88
2024/03/06 09:13:46;;;;;;;10.50;8.33;;;;;;;;;;4995451;28;20418;-91
2024/03/06 09:16:12;;;;;;;9.23;7.90;;;;;;;;;;4998832;28;20473;-89
2024/03/06 09:18:38;;;;;;;9.40;7.93;;;;;;;;;;5015381;28;20635;-89
2024/03/06 09:21:04;;;;;;;7.97;6.53;;;;;;;;;;5014533;28;20424;-88
2024/03/06 09:23:30;;;;;;;9.73;6.43;;;;;;;;;;5013002;28;20489;-87
2024/03/06 09:25:56;;;;;;;17.05;12.63;;;;;;;;;;5013147;28;20178;-88
2024/03/06 09:28:22;;;;;;;9.80;6.30;;;;;;;;;;4996691;28;20198;-89
2024/03/06 09:30:48;;;;;;;6.15;4.65;;;;;;;;;;4992778;28;20448;-88
2024/03/06 09:33:14;;;;;;;7.27;3.70;;;;;;;;;;4994582;28;20270;-83
2024/03/06 09:35:44;;;;;;;3.53;3.00;;;;;;;;;;4994330;28;20895;-88
2024/03/06 09:38:11;;;;;;;4.27;3.37;;;;;;;;;;4994332;28;20470;-88
2024/03/06 09:40:37;;;;;;;6.93;3.97;;;;;;;;;;4994013;28;20801;-88
2024/03/06 09:43:03;;;;;;;4.40;3.40;;;;;;;;;;4993867;28;21076;-87
2024/03/06 09:45:29;;;;;;;3.80;3.27;;;;;;;;;;4997023;28;20411;-88
2024/03/06 09:47:55;;;;;;;6.20;3.67;;;;;;;;;;4980618;28;20421;-87
2024/03/06 09:50:25;;;;;;;7.40;4.00;;;;;;;;;;4980889;28;20869;-87
2024/03/06 09:52:53;;;;;;;6.13;4.23;;;;;;;;;;5007408;28;20462;-86
2024/03/06 09:55:20;;;;;;;4.43;3.53;;;;;;;;;;4980167;28;20517;-86
2024/03/06 09:57:46;;;;;;;6.83;4.43;;;;;;;;;;4980963;28;20403;-86
2024/03/06 10:00:12;;;;;;;5.60;4.33;;;;;;;;;;4980581;28;20791;-86
2024/03/06 10:02:39;;;;;;;5.20;4.30;;;;;;;;;;4996212;28;20486;-85
2024/03/06 10:05:05;;;;;;;7.47;5.20;;;;;;;;;;4996593;28;20426;-84
2024/03/06 10:07:31;;;;;;;5.90;4.80;;;;;;;;;;4996759;28;20470;-85
2024/03/06 10:09:58;;;;;;;5.00;4.40;;;;;;;;;;4997790;28;20893;-87
2024/03/06 10:12:24;;;;;;;7.20;5.20;;;;;;;;;;4998153;28;20415;-86
2024/03/06 10:14:54;;;;;;;6.77;5.03;;;;;;;;;;4980575;28;20438;-87
2024/03/06 10:17:23;;;;;;;8.83;6.20;;;;;;;;;;4997002;28;20954;-85
2024/03/06 10:19:51;;;;;;;7.90;5.63;;;;;;;;;;4997295;28;20465;-86
2024/03/06 10:22:18;;;;;;;8.47;5.17;;;;;;;;;;4997407;28;20462;-84
2024/03/06 10:24:44;;;;;;;7.07;5.50;;;;;;;;;;5012236;28;20445;-86
2024/03/06 10:27:16;;;;;;;6.57;4.93;;;;;;;;;;4997545;28;20418;-86
2024/03/06 10:29:42;;;;;;;7.40;5.67;;;;;;;;;;4996713;28;20387;-86
2024/03/06 10:32:08;;;;;;;9.37;5.73;;;;;;;;;;5003070;28;20418;-85
2024/03/06 10:34:34;;;;;;;8.27;5.53;;;;;;;;;;5003441;28;20418;-84
2024/03/06 10:37:03;;;;;;;7.80;5.57;;;;;;;;;;4998047;28;20377;-85
2024/03/06 10:39:30;;;;;;;8.20;5.97;;;;;;;;;;5015617;28;20909;-85
2024/03/06 10:41:57;;;;;;;7.90;6.47;;;;;;;;;;5016825;28;20457;-86
2024/03/06 10:44:25;;;;;;;8.90;6.13;;;;;;;;;;5015630;28;20786;-85
2024/03/06 10:47:01;;;;;;;8.10;5.70;;;;;;;;;;5002453;28;20472;-85
2024/03/06 10:49:29;;;;;;;7.50;6.50;;;;;;;;;;4985706;28;20428;-85
2024/03/06 10:52:02;;;;;;;6.27;5.63;;;;;;;;;;5015534;28;20932;-85
2024/03/06 10:54:30;;;;;;;7.93;6.13;;;;;;;;;;5003674;28;20437;-85
2024/03/06 10:56:56;;;;;;;7.83;6.90;;;;;;;;;;4979569;28;20482;-85
2024/03/06 10:59:27;;;;;;;9.33;7.53;;;;;;;;;;4997119;28;20399;-84
2024/03/06 11:01:54;;;;;;;11.83;7.77;;;;;;;;;;4997576;28;20391;-85
2024/03/06 11:04:20;;;;;;;7.97;7.17;;;;;;;;;;4996428;28;20507;-83
2024/03/06 11:06:48;;;;;;;9.83;8.13;;;;;;;;;;4979053;28;20975;-88
2024/03/06 11:09:15;;;;;;;10.87;9.30;;;;;;;;;;4979459;28;20426;-85
2024/03/06 11:11:48;;;;;;;13.63;9.93;;;;;;;;;;4995803;28;20432;-85
2024/03/06 11:14:15;;;;;;;13.63;10.40;;;;;;;;;;4993723;28;20428;-85
2024/03/06 11:17:01;;;;;;;15.53;9.47;;;;;;;;;;4995668;28;20270;-85
2024/03/06 11:19:28;;;;;;;14.02;10.43;;;;;;;;;;4996439;28;20407;-85
2024/03/06 11:21:54;;;;;;;17.02;10.32;;;;;;;;;;4996486;28;20214;-85
2024/03/06 11:24:21;;;;;;;16.37;11.30;;;;;;;;;;4996842;28;20183;-84
2024/03/06 11:26:48;;;;;;;15.57;11.10;;;;;;;;;;4996172;28;20494;-85
2024/03/06 11:29:18;;;;;;;17.15;12.40;;;;;;;;;;4995323;28;20183;-85
2024/03/06 11:32:00;;;;;;;18.25;12.60;;;;;;;;;;4996213;28;20160;-84
2024/03/06 11:34:26;;;;;;;17.33;12.25;;;;;;;;;;4996322;28;20557;-85
2024/03/06 11:36:57;;;;;;;25.23;18.67;;;;;;;;;;4990516;28;20230;-85
2024/03/06 11:39:23;;;;;;;18.63;13.43;;;;;;;;;;4976678;28;20183;-84
2024/03/06 11:41:50;;;;;;;17.27;12.93;;;;;;;;;;4976479;28;20180;-86
2024/03/06 11:44:17;;;;;;;20.98;12.90;;;;;;;;;;4976519;28;20180;-85
2024/03/06 11:46:48;;;;;;;16.03;12.93;;;;;;;;;;4982379;28;20199;-85
2024/03/06 11:49:20;;;;;;;17.70;13.17;;;;;;;;;;4995970;28;20407;-86
2024/03/06 11:51:49;;;;;;;17.53;11.50;;;;;;;;;;4994652;28;20450;-86
2024/03/06 11:54:17;;;;;;;13.40;11.40;;;;;;;;;;4995496;28;20509;-86
2024/03/06 11:56:46;;;;;;;12.90;10.00;;;;;;;;;;4995391;28;20274;-86
2024/03/06 11:59:13;;;;;;;18.33;13.13;;;;;;;;;;4995911;28;20482;-86
2024/03/06 12:01:39;;;;;;;15.27;12.03;;;;;;;;;;4995204;28;20405;-86
2024/03/06 12:04:06;;;;;;;17.00;11.90;;;;;;;;;;4995624;28;20410;-86
2024/03/06 12:06:33;;;;;;;16.50;12.03;;;;;;;;;;4994737;28;20227;-85
2024/03/06 12:08:59;;;;;;;18.15;12.13;;;;;;;;;;4995654;28;20485;-86
2024/03/06 12:11:27;;;;;;;16.92;12.80;;;;;;;;;;4995677;28;20182;-85
2024/03/06 12:13:53;;;;;;;15.98;12.95;;;;;;;;;;4995639;28;20175;-85
2024/03/06 12:16:19;;;;;;;16.40;12.80;;;;;;;;;;4995624;28;20182;-85
2024/03/06 12:18:46;;;;;;;15.20;12.77;;;;;;;;;;4994074;28;20411;-85
2024/03/06 12:21:13;;;;;;;14.45;12.15;;;;;;;;;;4995546;28;20454;-86
2024/03/06 12:23:39;;;;;;;15.43;12.43;;;;;;;;;;4977375;28;20574;-85
2024/03/06 12:26:10;;;;;;;15.02;12.73;;;;;;;;;;4994943;28;20650;-83
2024/03/06 12:28:37;;;;;;;15.60;11.80;;;;;;;;;;4977252;28;20206;-86
2024/03/06 12:31:04;;;;;;;12.90;11.00;;;;;;;;;;4995278;28;20403;-85
2024/03/06 12:33:30;;;;;;;14.90;11.70;;;;;;;;;;4995129;28;20411;-84
2024/03/06 12:36:06;;;;;;;16.37;11.30;;;;;;;;;;4977834;28;20415;-84
2024/03/06 12:38:33;;;;;;;12.47;10.33;;;;;;;;;;4995113;28;20466;-85
2024/03/06 12:40:59;;;;;;;11.70;9.40;;;;;;;;;;4977611;28;20457;-86
2024/03/06 12:43:26;;;;;;;19.50;10.20;;;;;;;;;;4993686;28;20466;-84
2024/03/06 12:45:56;;;;;;;10.87;7.87;;;;;;;;;;4994880;28;20434;-84
2024/03/06 12:48:23;;;;;;;8.23;7.30;;;;;;;;;;4995198;28;20391;-85
2024/03/06 12:50:51;;;;;;;11.20;7.60;;;;;;;;;;4994920;28;20395;-85
2024/03/06 12:53:18;;;;;;;8.43;6.93;;;;;;;;;;4994664;28;20454;-85
2024/03/06 12:55:45;;;;;;;9.50;7.30;;;;;;;;;;4994275;28;20962;-85
2024/03/06 12:58:12;;;;;;;8.30;6.93;;;;;;;;;;4977053;28;20488;-85
2024/03/06 13:00:38;;;;;;;8.90;8.00;;;;;;;;;;4994189;28;20458;-85
2024/03/06 13:03:04;;;;;;;21.30;14.43;;;;;;;;;;4994491;28;20462;-85
2024/03/06 13:05:31;;;;;;;13.30;11.37;;;;;;;;;;4994157;28;20470;-84
2024/03/06 13:07:57;;;;;;;13.20;10.33;;;;;;;;;;4997416;28;20965;-84
2024/03/06 13:10:23;;;;;;;8.00;7.20;;;;;;;;;;4994916;28;20469;-85
2024/03/06 13:12:49;;;;;;;12.20;8.20;;;;;;;;;;4994820;28;20505;-85
2024/03/06 13:15:15;;;;;;;13.33;10.20;;;;;;;;;;4994512;28;20415;-85
2024/03/06 13:17:41;;;;;;;12.17;9.47;;;;;;;;;;4977291;28;20422;-84
2024/03/06 13:20:13;;;;;;;11.00;7.70;;;;;;;;;;4998401;28;20480;-85
2024/03/06 13:22:40;;;;;;;15.70;7.10;;;;;;;;;;4998318;28;20454;-85
2024/03/06 13:25:06;;;;;;;10.33;7.83;;;;;;;;;;4998628;28;20561;-85
2024/03/06 13:27:32;;;;;;;10.80;7.40;;;;;;;;;;4998251;28;20430;-84
2024/03/06 13:29:58;;;;;;;8.90;7.97;;;;;;;;;;4998180;28;20419;-85
2024/03/06 13:32:24;;;;;;;9.43;8.20;;;;;;;;;;4998213;28;20410;-84
2024/03/06 13:34:50;;;;;;;9.80;7.53;;;;;;;;;;4997714;28;20472;-85
2024/03/06 13:37:16;;;;;;;9.40;8.40;;;;;;;;;;4997600;28;20419;-86
2024/03/06 13:39:42;;;;;;;9.77;7.70;;;;;;;;;;4980042;28;20430;-85
2024/03/06 13:42:08;;;;;;;12.40;8.00;;;;;;;;;;4997954;28;20775;-86
2024/03/06 13:44:35;;;;;;;10.13;8.40;;;;;;;;;;4997748;28;20461;-85
2024/03/06 13:47:02;;;;;;;9.13;8.00;;;;;;;;;;4997818;28;20938;-86
2024/03/06 13:49:35;;;;;;;14.63;9.93;;;;;;;;;;4980334;28;20426;-86
2024/03/06 13:52:01;;;;;;;10.17;7.70;;;;;;;;;;4997829;28;20411;-86
2024/03/06 13:54:27;;;;;;;10.10;7.37;;;;;;;;;;4998038;28;20492;-85
2024/03/06 13:57:01;;;;;;;8.93;8.00;;;;;;;;;;4997228;28;20426;-85
2024/03/06 13:59:27;;;;;;;10.87;7.67;;;;;;;;;;4981599;28;20899;-87
2024/03/06 14:01:53;;;;;;;10.10;8.40;;;;;;;;;;4997038;28;20438;-85
2024/03/06 14:04:19;;;;;;;8.60;7.63;;;;;;;;;;4980261;28;20803;-86
2024/03/06 14:06:45;;;;;;;10.00;7.90;;;;;;;;;;5009715;28;20465;-85
2024/03/06 14:09:13;;;;;;;8.13;7.33;;;;;;;;;;5016900;28;20413;-85
2024/03/06 14:11:40;;;;;;;8.37;7.57;;;;;;;;;;5016725;28;20436;-86
2024/03/06 14:14:06;;;;;;;9.03;6.90;;;;;;;;;;5016939;28;20394;-85
2024/03/06 14:16:32;;;;;;;7.80;6.93;;;;;;;;;;5016619;28;20418;-85
2024/03/06 14:18:58;;;;;;;9.77;7.93;;;;;;;;;;5016540;28;20442;-86
2024/03/06 14:21:24;;;;;;;11.33;7.70;;;;;;;;;;5016343;28;20884;-85
2024/03/06 14:23:50;;;;;;;8.83;7.47;;;;;;;;;;5014660;28;20575;-85